createdAt,value
2023-03-13T05:00:34.449Z,0.00
2023-03-13T05:01:35.446Z,1.00
2023-03-13T05:02:35.365Z,1.00
2023-03-13T05:03:35.369Z,1.00
2023-03-13T05:04:35.483Z,1.00
2023-03-13T05:05:35.358Z,2.00
2023-03-13T05:06:35.341Z,2.00
2023-03-13T05:07:35.356Z,2.00
2023-03-13T05:08:35.318Z,2.00
2023-03-13T05:09:35.308Z,3.00
2023-03-13T05:10:35.310Z,2.00
2023-03-13T05:11:35.287Z,3.00
2023-03-13T05:12:35.272Z,9.00
2023-03-13T05:13:35.292Z,6.00
2023-03-13T05:14:35.240Z,10.00
2023-03-13T05:15:35.286Z,11.00
2023-03-13T05:16:35.234Z,10.00
2023-03-13T05:17:35.222Z,8.00
2023-03-13T05:18:35.228Z,17.00
2023-03-13T05:19:35.211Z,17.00
2023-03-13T05:20:35.183Z,18.00
2023-03-13T05:21:35.188Z,17.00
2023-03-13T05:22:35.170Z,19.00
2023-03-13T05:23:35.162Z,18.00
2023-03-13T05:24:35.153Z,25.00
2023-03-13T05:25:35.127Z,27.00
2023-03-13T05:26:35.142Z,31.00
2023-03-13T05:27:35.136Z,36.00
2023-03-13T05:28:35.131Z,38.00
2023-03-13T05:29:35.122Z,42.00
2023-03-13T05:30:35.082Z,43.00
2023-03-13T05:31:35.138Z,49.00
2023-03-13T05:32:35.142Z,56.00
2023-03-13T05:33:35.134Z,58.00
2023-03-13T05:34:35.042Z,60.00
2023-03-13T05:35:35.086Z,63.00
2023-03-13T05:36:35.010Z,65.00
2023-03-13T05:37:35.008Z,73.00
2023-03-13T05:38:35.015Z,77.00
2023-03-13T05:39:35.020Z,79.00
2023-03-13T05:40:34.969Z,88.00
2023-03-13T05:41:34.962Z,96.00
2023-03-13T05:42:34.955Z,98.00
2023-03-13T05:43:34.945Z,102.00
2023-03-13T05:44:34.944Z,103.00
2023-03-13T05:45:34.926Z,102.00
2023-03-13T05:46:35.074Z,104.00
2023-03-13T05:47:34.904Z,112.00
2023-03-13T05:48:34.878Z,124.00
2023-03-13T05:49:34.880Z,133.00
2023-03-13T05:50:34.884Z,142.00
2023-03-13T05:51:34.848Z,153.00
2023-03-13T05:52:34.878Z,167.00
2023-03-13T05:53:34.840Z,181.00
2023-03-13T05:54:34.846Z,186.00
2023-03-13T05:55:34.828Z,185.00
2023-03-13T05:56:34.795Z,186.00
2023-03-13T05:57:34.840Z,202.00
2023-03-13T05:58:34.816Z,219.00
2023-03-13T05:59:34.804Z,230.00
2023-03-13T06:00:34.752Z,241.00
2023-03-13T06:01:34.749Z,249.00
2023-03-13T06:02:34.795Z,261.00
2023-03-13T06:03:34.845Z,272.00
2023-03-13T06:04:34.823Z,277.00
2023-03-13T06:05:34.816Z,281.00
2023-03-13T06:06:34.703Z,283.00
2023-03-13T06:07:34.719Z,283.00
2023-03-13T06:08:34.742Z,275.00
2023-03-13T06:09:34.685Z,277.00
2023-03-13T06:10:34.690Z,292.00
2023-03-13T06:11:34.628Z,318.00
2023-03-13T06:12:34.674Z,344.00
2023-03-13T06:13:34.610Z,368.00
2023-03-13T06:14:34.615Z,380.00
2023-03-13T06:15:34.596Z,385.00
2023-03-13T06:16:34.840Z,370.00
2023-03-13T06:17:34.594Z,348.00
2023-03-13T06:18:34.583Z,340.00
2023-03-13T06:19:34.582Z,339.00
2023-03-13T06:20:34.540Z,332.00
2023-03-13T06:21:34.560Z,326.00
2023-03-13T06:22:34.694Z,334.00
2023-03-13T06:23:34.552Z,333.00
2023-03-13T06:24:34.532Z,348.00
2023-03-13T06:25:34.511Z,341.00
2023-03-13T06:26:34.535Z,352.00
2023-03-13T06:27:34.495Z,366.00
2023-03-13T06:28:34.457Z,372.00
2023-03-13T06:29:34.449Z,375.00
2023-03-13T06:30:34.441Z,386.00
2023-03-13T06:31:34.501Z,374.00
2023-03-13T06:32:34.716Z,332.00
2023-03-13T06:33:34.437Z,317.00
2023-03-13T06:34:34.375Z,315.00
2023-03-13T06:35:43.532Z,340.00
2023-03-13T06:36:34.418Z,388.00
2023-03-13T06:37:34.424Z,432.00
2023-03-13T06:38:34.358Z,480.00
2023-03-13T06:39:34.378Z,508.00
2023-03-13T06:40:34.341Z,543.00
2023-03-13T06:41:34.325Z,577.00
2023-03-13T06:42:34.317Z,595.00
2023-03-13T06:43:34.318Z,591.00
2023-03-13T06:44:34.271Z,586.00
2023-03-13T06:45:34.321Z,582.00
2023-03-13T06:46:34.321Z,603.00
2023-03-13T06:47:34.282Z,627.00
2023-03-13T06:48:34.271Z,631.00
2023-03-13T06:49:34.240Z,636.00
2023-03-13T06:50:34.215Z,644.00
2023-03-13T06:51:34.214Z,644.00
2023-03-13T06:52:43.447Z,660.00
2023-03-13T06:53:34.204Z,683.00
2023-03-13T06:54:34.196Z,707.00
2023-03-13T06:55:34.205Z,720.00
2023-03-13T06:56:34.201Z,730.00
2023-03-13T06:57:34.168Z,752.00
2023-03-13T06:58:34.173Z,777.00
2023-03-13T06:59:34.119Z,816.00
2023-03-13T07:00:34.154Z,867.00
2023-03-13T07:01:34.141Z,919.00
2023-03-13T07:02:34.111Z,964.00
2023-03-13T07:03:34.243Z,1045.00
2023-03-13T07:04:34.082Z,1155.00
2023-03-13T07:05:34.105Z,1216.00
2023-03-13T07:06:34.062Z,1207.00
2023-03-13T07:07:34.065Z,1112.00
2023-03-13T07:08:34.076Z,999.00
2023-03-13T07:09:34.038Z,976.00
2023-03-13T07:10:34.017Z,1001.00
2023-03-13T07:11:33.989Z,1031.00
2023-03-13T07:12:34.039Z,1065.00
2023-03-13T07:13:34.012Z,1131.00
2023-03-13T07:14:33.990Z,1179.00
2023-03-13T07:15:33.964Z,1197.00
2023-03-13T07:16:34.086Z,1226.00
2023-03-13T07:17:34.050Z,1246.00
2023-03-13T07:18:33.930Z,1237.00
2023-03-13T07:19:33.920Z,1286.00
2023-03-13T07:20:34.049Z,1335.00
2023-03-13T07:21:33.903Z,1218.00
2023-03-13T07:22:33.890Z,962.00
2023-03-13T07:23:33.873Z,903.00
2023-03-13T07:24:33.975Z,841.00
2023-03-13T07:25:33.843Z,676.00
2023-03-13T07:26:33.899Z,785.00
2023-03-13T07:27:33.821Z,1032.00
2023-03-13T07:28:36.363Z,1141.00
2023-03-13T07:29:33.829Z,1138.00
2023-03-13T07:30:33.849Z,1001.00
2023-03-13T07:31:33.959Z,828.00
2023-03-13T07:32:33.838Z,905.00
2023-03-13T07:33:33.799Z,999.00
2023-03-13T07:34:33.794Z,1038.00
2023-03-13T07:35:33.753Z,1044.00
2023-03-13T07:36:33.816Z,894.00
2023-03-13T07:37:33.777Z,1041.00
2023-03-13T07:38:33.790Z,912.00
2023-03-13T07:39:33.725Z,1337.00
2023-03-13T07:40:33.734Z,1619.00
2023-03-13T07:41:34.716Z,1554.00
2023-03-13T07:42:33.672Z,1417.00
2023-03-13T07:43:33.677Z,1126.00
2023-03-13T07:44:33.723Z,1004.00
2023-03-13T07:45:33.717Z,972.00
2023-03-13T07:46:33.652Z,1200.00
2023-03-13T07:47:34.112Z,1190.00
2023-03-13T07:48:33.780Z,1237.00
2023-03-13T07:49:33.704Z,1247.00
2023-03-13T07:50:33.662Z,1404.00
2023-03-13T07:51:43.605Z,1410.00
2023-03-13T07:52:33.629Z,1521.00
2023-03-13T07:53:33.617Z,1540.00
2023-03-13T07:54:33.568Z,1593.00
2023-03-13T07:55:33.542Z,1625.00
2023-03-13T07:56:33.549Z,1619.00
2023-03-13T07:57:33.532Z,1331.00
2023-03-13T07:58:33.614Z,1488.00
2023-03-13T07:59:33.589Z,1428.00
2023-03-13T08:00:33.561Z,1460.00
2023-03-13T08:01:33.477Z,1226.00
2023-03-13T08:02:33.662Z,1069.00
2023-03-13T08:03:33.505Z,872.00
2023-03-13T08:04:33.481Z,798.00
2023-03-13T08:05:33.430Z,1008.00
2023-03-13T08:06:34.253Z,1076.00
2023-03-13T08:07:33.419Z,1015.00
2023-03-13T08:08:33.475Z,1151.00
2023-03-13T08:09:33.478Z,801.00
2023-03-13T08:10:33.382Z,873.00
2023-03-13T08:11:33.456Z,736.00
2023-03-13T08:12:33.411Z,1070.00
2023-03-13T08:13:33.369Z,1393.00
2023-03-13T08:14:33.335Z,1105.00
2023-03-13T08:15:33.496Z,1028.00
2023-03-13T08:16:33.517Z,1089.00
2023-03-13T08:17:33.324Z,1108.00
2023-03-13T08:18:33.465Z,972.00
2023-03-13T08:19:33.298Z,916.00
2023-03-13T08:20:33.304Z,914.00
2023-03-13T08:21:33.279Z,852.00
2023-03-13T08:22:33.240Z,1144.00
2023-03-13T08:23:33.226Z,834.00
2023-03-13T08:24:33.219Z,726.00
2023-03-13T08:25:33.272Z,698.00
2023-03-13T08:26:33.211Z,919.00
2023-03-13T08:27:33.198Z,872.00
2023-03-13T08:28:33.243Z,922.00
2023-03-13T08:29:33.156Z,929.00
2023-03-13T08:30:33.199Z,1030.00
2023-03-13T08:31:33.202Z,1057.00
2023-03-13T08:32:33.175Z,1150.00
2023-03-13T08:33:33.223Z,867.00
2023-03-13T08:34:33.139Z,832.00
2023-03-13T08:35:33.437Z,1202.00
2023-03-13T08:36:33.196Z,1001.00
2023-03-13T08:37:33.117Z,816.00
2023-03-13T08:38:33.177Z,478.00
2023-03-13T08:39:33.079Z,641.00
2023-03-13T08:40:33.084Z,672.00
2023-03-13T08:41:33.075Z,865.00
2023-03-13T08:42:33.056Z,684.00
2023-03-13T08:43:33.046Z,922.00
2023-03-13T08:44:33.029Z,1094.00
2023-03-13T08:45:32.994Z,1219.00
2023-03-13T08:46:33.138Z,1306.00
2023-03-13T08:47:33.071Z,1317.00
2023-03-13T08:48:32.967Z,1331.00
2023-03-13T08:49:32.994Z,1154.00
2023-03-13T08:50:32.957Z,1065.00
2023-03-13T08:51:33.016Z,1148.00
2023-03-13T08:52:32.926Z,1121.00
2023-03-13T08:53:32.911Z,913.00
2023-03-13T08:54:32.934Z,1126.00
2023-03-13T08:55:32.880Z,974.00
2023-03-13T08:56:32.969Z,958.00
2023-03-13T08:57:32.908Z,911.00
2023-03-13T08:58:32.872Z,976.00
2023-03-13T08:59:32.894Z,971.00
2023-03-13T09:00:32.864Z,987.00
2023-03-13T09:01:32.864Z,1185.00
2023-03-13T09:02:33.055Z,1172.00
2023-03-13T09:03:32.842Z,1382.00
2023-03-13T09:04:32.791Z,1128.00
2023-03-13T09:05:36.624Z,942.00
2023-03-13T09:06:32.776Z,1021.00
2023-03-13T09:07:32.768Z,908.00
2023-03-13T09:08:32.732Z,1202.00
2023-03-13T09:09:32.778Z,1118.00
2023-03-13T09:10:32.735Z,939.00
2023-03-13T09:11:32.712Z,1100.00
2023-03-13T09:12:32.704Z,1110.00
2023-03-13T09:13:32.725Z,1079.00
2023-03-13T09:14:33.701Z,1125.00
2023-03-13T09:15:32.730Z,1213.00
2023-03-13T09:16:32.700Z,1190.00
2023-03-13T09:17:32.641Z,1153.00
2023-03-13T09:18:32.718Z,1180.00
2023-03-13T09:19:32.666Z,1121.00
2023-03-13T09:20:32.612Z,1125.00
2023-03-13T09:21:32.623Z,1076.00
2023-03-13T09:22:32.618Z,873.00
2023-03-13T09:23:32.601Z,989.00
2023-03-13T09:24:32.599Z,1045.00
2023-03-13T09:25:32.645Z,1016.00
2023-03-13T09:26:32.622Z,920.00
2023-03-13T09:27:32.609Z,865.00
2023-03-13T09:28:32.582Z,1013.00
2023-03-13T09:29:33.075Z,1125.00
2023-03-13T09:30:32.509Z,1146.00
2023-03-13T09:31:32.591Z,1072.00
2023-03-13T09:32:32.633Z,1004.00
2023-03-13T09:33:32.605Z,898.00
2023-03-13T09:34:32.553Z,814.00
2023-03-13T09:35:32.535Z,711.00
2023-03-13T09:36:32.509Z,614.00
2023-03-13T09:37:32.500Z,658.00
2023-03-13T09:38:32.451Z,990.00
2023-03-13T09:39:32.459Z,1041.00
2023-03-13T09:40:32.422Z,1021.00
2023-03-13T09:41:32.416Z,1068.00
2023-03-13T09:42:32.371Z,982.00
2023-03-13T09:43:32.380Z,845.00
2023-03-13T09:44:32.450Z,689.00
2023-03-13T09:45:32.409Z,806.00
2023-03-13T09:46:32.513Z,944.00
2023-03-13T09:47:32.387Z,1248.00
2023-03-13T09:48:32.315Z,1278.00
2023-03-13T09:49:32.351Z,1273.00
2023-03-13T09:50:32.319Z,1502.00
2023-03-13T09:51:32.284Z,1397.00
2023-03-13T09:52:32.329Z,1282.00
2023-03-13T09:53:32.321Z,1264.00
2023-03-13T09:54:32.251Z,1287.00
2023-03-13T09:55:32.268Z,1450.00
2023-03-13T09:56:32.248Z,1550.00
2023-03-13T09:57:32.231Z,1473.00
2023-03-13T09:58:32.218Z,1263.00
2023-03-13T09:59:32.217Z,1144.00
2023-03-13T10:00:32.226Z,1077.00
2023-03-13T10:01:32.238Z,1118.00
2023-03-13T10:02:32.155Z,1071.00
2023-03-13T10:03:32.150Z,1048.00
2023-03-13T10:04:32.184Z,1047.00
2023-03-13T10:05:32.146Z,1043.00
2023-03-13T10:06:32.121Z,1108.00
2023-03-13T10:07:32.136Z,1059.00
2023-03-13T10:08:32.176Z,1046.00
2023-03-13T10:09:32.092Z,977.00
2023-03-13T10:10:32.169Z,951.00
2023-03-13T10:11:32.052Z,736.00
2023-03-13T10:12:32.111Z,793.00
2023-03-13T10:13:32.072Z,927.00
2023-03-13T10:14:32.041Z,1176.00
2023-03-13T10:15:32.123Z,1487.00
2023-03-13T10:16:32.046Z,1370.00
2023-03-13T10:17:32.056Z,1083.00
2023-03-13T10:18:32.073Z,1309.00
2023-03-13T10:19:32.036Z,2478.00
2023-03-13T10:20:31.993Z,2294.00
2023-03-13T10:21:32.031Z,2488.00
2023-03-13T10:22:31.943Z,2456.00
2023-03-13T10:23:31.924Z,2008.00
2023-03-13T10:24:31.911Z,2454.00
2023-03-13T10:25:31.922Z,2951.00
2023-03-13T10:26:31.917Z,2999.00
2023-03-13T10:27:31.873Z,3119.00
2023-03-13T10:28:31.878Z,2823.00
2023-03-13T10:29:31.951Z,2592.00
2023-03-13T10:30:31.899Z,2691.00
2023-03-13T10:31:31.948Z,2800.00
2023-03-13T10:32:31.845Z,2792.00
2023-03-13T10:33:31.903Z,2855.00
2023-03-13T10:34:31.800Z,2891.00
2023-03-13T10:35:32.047Z,3221.00
2023-03-13T10:36:31.809Z,3167.00
2023-03-13T10:37:31.818Z,2863.00
2023-03-13T10:38:31.787Z,2491.00
2023-03-13T10:39:31.743Z,1986.00
2023-03-13T10:40:31.777Z,3469.00
2023-03-13T10:41:32.126Z,4043.00
2023-03-13T10:42:31.734Z,3446.00
2023-03-13T10:43:31.725Z,3979.00
2023-03-13T10:44:31.745Z,3897.00
2023-03-13T10:45:31.735Z,3103.00
2023-03-13T10:46:31.882Z,2818.00
2023-03-13T10:47:31.906Z,2740.00
2023-03-13T10:48:31.650Z,2691.00
2023-03-13T10:49:31.693Z,2444.00
2023-03-13T10:50:31.700Z,2978.00
2023-03-13T10:51:31.698Z,4115.00
2023-03-13T10:52:31.614Z,4226.00
2023-03-13T10:53:31.699Z,4285.00
2023-03-13T10:54:31.598Z,4785.00
2023-03-13T10:55:31.573Z,5164.00
2023-03-13T10:56:31.554Z,5678.00
2023-03-13T10:57:31.655Z,5862.00
2023-03-13T10:58:31.565Z,5357.00
2023-03-13T10:59:31.642Z,5521.00
2023-03-13T11:00:31.535Z,5158.00
2023-03-13T11:01:31.549Z,6366.00
2023-03-13T11:02:31.676Z,4507.00
2023-03-13T11:03:31.615Z,4273.00
2023-03-13T11:04:31.566Z,3700.00
2023-03-13T11:05:31.632Z,3534.00
2023-03-13T11:06:31.504Z,3506.00
2023-03-13T11:07:31.447Z,4019.00
2023-03-13T11:08:31.624Z,4540.00
2023-03-13T11:09:31.424Z,7126.00
2023-03-13T11:10:31.543Z,6030.00
2023-03-13T11:11:31.425Z,5644.00
2023-03-13T11:12:31.423Z,5293.00
2023-03-13T11:13:37.124Z,5313.00
2023-03-13T11:14:31.443Z,5493.00
2023-03-13T11:15:31.386Z,5398.00
2023-03-13T11:16:31.428Z,5908.00
2023-03-13T11:17:31.382Z,5635.00
2023-03-13T11:18:31.426Z,5613.00
2023-03-13T11:19:31.315Z,5191.00
2023-03-13T11:20:31.396Z,6470.00
2023-03-13T11:21:31.316Z,8534.00
2023-03-13T11:22:31.342Z,9090.00
2023-03-13T11:23:31.362Z,7545.00
2023-03-13T11:24:31.304Z,6788.00
2023-03-13T11:25:31.244Z,7995.00
2023-03-13T11:26:31.240Z,9277.00
2023-03-13T11:27:31.344Z,8085.00
2023-03-13T11:28:31.236Z,5963.00
2023-03-13T11:29:31.587Z,11303.00
2023-03-13T11:30:31.261Z,11872.00
2023-03-13T11:31:31.325Z,11204.00
2023-03-13T11:32:31.242Z,10414.00
2023-03-13T11:33:31.187Z,9398.00
2023-03-13T11:34:31.223Z,7638.00
2023-03-13T11:35:31.328Z,6817.00
2023-03-13T11:36:31.136Z,6685.00
2023-03-13T11:37:31.203Z,6485.00
2023-03-13T11:38:31.218Z,7152.00
2023-03-13T11:39:31.149Z,6421.00
2023-03-13T11:40:31.141Z,7703.00
2023-03-13T11:41:31.166Z,6566.00
2023-03-13T11:42:31.078Z,5817.00
2023-03-13T11:43:31.254Z,6185.00
2023-03-13T11:44:31.158Z,9424.00
2023-03-13T11:45:31.110Z,7314.00
2023-03-13T11:46:31.178Z,10410.00
2023-03-13T11:47:31.104Z,8288.00
2023-03-13T11:48:31.076Z,8553.00
2023-03-13T11:49:31.002Z,7434.00
2023-03-13T11:50:30.984Z,7023.00
2023-03-13T11:51:31.049Z,6228.00
2023-03-13T11:52:31.030Z,6947.00
2023-03-13T11:53:31.013Z,6190.00
2023-03-13T11:54:30.968Z,5505.00
2023-03-13T11:55:30.976Z,5008.00
2023-03-13T11:56:30.910Z,4691.00
2023-03-13T11:57:31.051Z,4382.00
2023-03-13T11:58:30.908Z,4103.00
2023-03-13T11:59:30.889Z,3645.00
2023-03-13T12:00:30.868Z,3867.00
2023-03-13T12:01:30.858Z,4551.00
2023-03-13T12:02:30.930Z,4749.00
2023-03-13T12:03:30.930Z,5848.00
2023-03-13T12:04:30.873Z,5264.00
2023-03-13T12:05:31.043Z,4507.00
2023-03-13T12:06:31.812Z,4184.00
2023-03-13T12:07:30.801Z,4205.00
2023-03-13T12:08:31.577Z,4418.00
2023-03-13T12:09:30.838Z,4241.00
2023-03-13T12:10:30.845Z,4426.00
2023-03-13T12:11:30.827Z,6295.00
2023-03-13T12:12:30.996Z,5445.00
2023-03-13T12:13:30.855Z,17095.00
2023-03-13T12:14:30.741Z,12302.00
2023-03-13T12:15:30.717Z,7064.00
2023-03-13T12:16:30.749Z,6899.00
2023-03-13T12:17:30.708Z,9093.00
2023-03-13T12:18:30.724Z,8914.00
2023-03-13T12:19:30.699Z,5843.00
2023-03-13T12:20:30.796Z,6159.00
2023-03-13T12:21:30.710Z,5689.00
2023-03-13T12:22:30.658Z,6501.00
2023-03-13T12:23:30.642Z,7773.00
2023-03-13T12:24:30.619Z,6032.00
2023-03-13T12:25:30.631Z,3322.00
2023-03-13T12:26:30.619Z,22040.00
2023-03-13T12:27:30.734Z,6487.00
2023-03-13T12:28:30.621Z,11079.00
2023-03-13T12:29:30.610Z,6340.00
2023-03-13T12:30:30.916Z,3447.00
2023-03-13T12:31:30.597Z,23433.00
2023-03-13T12:32:30.546Z,10555.00
2023-03-13T12:33:30.511Z,30309.00
2023-03-13T12:34:30.504Z,16071.00
2023-03-13T12:35:30.507Z,24033.00
2023-03-13T12:36:31.287Z,8057.00
2023-03-13T12:37:30.604Z,64232.00
2023-03-13T12:38:30.515Z,6074.00
2023-03-13T12:39:31.565Z,38077.00
2023-03-13T12:40:30.484Z,29084.00
2023-03-13T12:41:30.439Z,15884.00
2023-03-13T12:42:30.439Z,4846.00
2023-03-13T12:43:30.492Z,3109.00
2023-03-13T12:44:30.470Z,7436.00
2023-03-13T12:45:30.415Z,6438.00
2023-03-13T12:46:30.447Z,25330.00
2023-03-13T12:47:30.377Z,10831.00
2023-03-13T12:48:30.369Z,12938.00
2023-03-13T12:49:30.355Z,19356.00
2023-03-13T12:50:30.354Z,13872.00
2023-03-13T12:51:30.341Z,14179.00
2023-03-13T12:52:30.321Z,19958.00
2023-03-13T12:53:30.330Z,21129.00
2023-03-13T12:54:30.314Z,7803.00
2023-03-13T12:55:30.366Z,79413.00
2023-03-13T12:56:30.266Z,61674.00
2023-03-13T12:57:30.422Z,15440.00
2023-03-13T12:58:30.335Z,10985.00
2023-03-13T12:59:30.261Z,9974.00
2023-03-13T13:00:30.236Z,4823.00
2023-03-13T13:01:30.241Z,29073.00
2023-03-13T13:02:30.269Z,8512.00
2023-03-13T13:03:30.183Z,7836.00
2023-03-13T13:04:30.326Z,82447.00
2023-03-13T13:05:30.161Z,81625.00
2023-03-13T13:06:30.176Z,82179.00
2023-03-13T13:07:30.262Z,81045.00
2023-03-13T13:08:30.139Z,82992.00
2023-03-13T13:09:30.112Z,61806.00
2023-03-13T13:10:30.116Z,6370.00
2023-03-13T13:11:30.187Z,80126.00
2023-03-13T13:12:30.086Z,81424.00
2023-03-13T13:13:30.105Z,71470.00
2023-03-13T13:14:31.684Z,31189.00
2023-03-13T13:15:30.454Z,13115.00
2023-03-13T13:16:30.688Z,6890.00
2023-03-13T13:17:30.036Z,2188.00
2023-03-13T13:18:29.997Z,5821.00
2023-03-13T13:19:30.004Z,58865.00
2023-03-13T13:20:29.986Z,7570.00
2023-03-13T13:21:30.076Z,2870.00
2023-03-13T13:22:30.039Z,10592.00
2023-03-13T13:23:30.116Z,3224.00
2023-03-13T13:24:29.954Z,4798.00
2023-03-13T13:25:30.275Z,1911.00
2023-03-13T13:26:30.049Z,4352.00
2023-03-13T13:27:30.015Z,74409.00
2023-03-13T13:28:30.024Z,72961.00
2023-03-13T13:29:30.000Z,36124.00
2023-03-13T13:30:29.932Z,8296.00
2023-03-13T13:31:30.032Z,73167.00
2023-03-13T13:32:30.437Z,27889.00
2023-03-13T13:33:30.881Z,72046.00
2023-03-13T13:34:30.366Z,30689.00
2023-03-13T13:35:32.258Z,32204.00
2023-03-13T13:36:29.941Z,18211.00
2023-03-13T13:37:29.876Z,18203.00
2023-03-13T13:38:30.755Z,23461.00
2023-03-13T13:39:31.332Z,30838.00
2023-03-13T13:40:30.370Z,26454.00
2023-03-13T13:41:30.343Z,19644.00
2023-03-13T13:42:29.824Z,13451.00
2023-03-13T13:43:29.829Z,3723.00
2023-03-13T13:44:29.863Z,20489.00
2023-03-13T13:45:32.893Z,18598.00
2023-03-13T13:46:29.829Z,3350.00
2023-03-13T13:47:31.773Z,16102.00
2023-03-13T13:48:29.829Z,6145.00
2023-03-13T13:49:29.739Z,3697.00
2023-03-13T13:50:29.693Z,8093.00
2023-03-13T13:51:29.678Z,4378.00
2023-03-13T13:52:29.710Z,6213.00
2023-03-13T13:53:29.690Z,5578.00
2023-03-13T13:54:29.707Z,1662.00
2023-03-13T13:55:29.642Z,12300.00
2023-03-13T13:56:29.694Z,7868.00
2023-03-13T13:57:29.613Z,4361.00
2023-03-13T13:58:29.601Z,10399.00
2023-03-13T13:59:29.568Z,9761.00
2023-03-13T14:00:29.558Z,7553.00
2023-03-13T14:01:29.579Z,4898.00
2023-03-13T14:02:29.541Z,6241.00
2023-03-13T14:03:29.554Z,5992.00
2023-03-13T14:04:30.371Z,3891.00
2023-03-13T14:05:29.876Z,2282.00
2023-03-13T14:06:29.587Z,13891.00
2023-03-13T14:07:29.989Z,6236.00
2023-03-13T14:08:29.546Z,4248.00
2023-03-13T14:09:29.536Z,22365.00
2023-03-13T14:10:29.657Z,7936.00
2023-03-13T14:11:29.545Z,5353.00
2023-03-13T14:12:29.968Z,2846.00
2023-03-13T14:13:29.830Z,19197.00
2023-03-13T14:14:29.473Z,8315.00
2023-03-13T14:15:29.401Z,2484.00
2023-03-13T14:16:29.517Z,16509.00
2023-03-13T14:17:29.434Z,2698.00
2023-03-13T14:18:29.385Z,16785.00
2023-03-13T14:19:29.439Z,4721.00
2023-03-13T14:20:29.554Z,11256.00
2023-03-13T14:21:30.391Z,6715.00
2023-03-13T14:22:29.599Z,4095.00
2023-03-13T14:23:29.437Z,3299.00
2023-03-13T14:24:29.346Z,2256.00
2023-03-13T14:25:29.289Z,3622.00
2023-03-13T14:26:29.356Z,16714.00
2023-03-13T14:27:29.475Z,2624.00
2023-03-13T14:28:29.269Z,19464.00
2023-03-13T14:29:29.287Z,6172.00
2023-03-13T14:30:29.246Z,6576.00
2023-03-13T14:31:29.388Z,4539.00
2023-03-13T14:32:29.389Z,4016.00
2023-03-13T14:33:29.281Z,4382.00
2023-03-13T14:34:31.556Z,3399.00
2023-03-13T14:35:29.210Z,2952.00
2023-03-13T14:36:29.209Z,3217.00
2023-03-13T14:37:29.249Z,2782.00
2023-03-13T14:38:29.151Z,3087.00
2023-03-13T14:39:29.296Z,2984.00
2023-03-13T14:40:29.140Z,3547.00
2023-03-13T14:41:29.925Z,2937.00
2023-03-13T14:42:29.165Z,4390.00
2023-03-13T14:43:29.280Z,3416.00
2023-03-13T14:44:29.250Z,3101.00
2023-03-13T14:45:29.115Z,2565.00
2023-03-13T14:46:29.194Z,2398.00
2023-03-13T14:47:29.186Z,2600.00
2023-03-13T14:48:29.045Z,2938.00
2023-03-13T14:49:29.130Z,2369.00
2023-03-13T14:50:29.049Z,2431.00
2023-03-13T14:51:29.017Z,2256.00
2023-03-13T14:52:29.065Z,2335.00
2023-03-13T14:53:29.025Z,2376.00
2023-03-13T14:54:29.045Z,1924.00
2023-03-13T14:55:28.983Z,1382.00
2023-03-13T14:56:28.973Z,1532.00
2023-03-13T14:57:29.104Z,1315.00
2023-03-13T14:58:28.981Z,1274.00
2023-03-13T14:59:28.955Z,7822.00
2023-03-13T15:00:28.926Z,11539.00
2023-03-13T15:01:28.983Z,7962.00
2023-03-13T15:02:28.897Z,2430.00
2023-03-13T15:03:28.885Z,17704.00
2023-03-13T15:04:28.919Z,4748.00
2023-03-13T15:05:28.847Z,1871.00
2023-03-13T15:06:28.836Z,10696.00
2023-03-13T15:07:28.876Z,4983.00
2023-03-13T15:08:28.811Z,3865.00
2023-03-13T15:09:28.882Z,2906.00
2023-03-13T15:10:28.796Z,2410.00
2023-03-13T15:11:28.819Z,2844.00
2023-03-13T15:12:28.783Z,3008.00
2023-03-13T15:13:28.832Z,1710.00
2023-03-13T15:14:28.765Z,12644.00
2023-03-13T15:15:28.877Z,2878.00
2023-03-13T15:16:28.938Z,2904.00
2023-03-13T15:17:28.782Z,1989.00
2023-03-13T15:18:28.769Z,1529.00
2023-03-13T15:19:28.712Z,1899.00
2023-03-13T15:20:28.684Z,2299.00
2023-03-13T15:21:28.785Z,2430.00
2023-03-13T15:22:28.684Z,2244.00
2023-03-13T15:23:28.744Z,1900.00
2023-03-13T15:24:28.652Z,1470.00
2023-03-13T15:25:28.629Z,1965.00
2023-03-13T15:26:28.608Z,2309.00
2023-03-13T15:27:28.619Z,1012.00
2023-03-13T15:28:28.604Z,1598.00
2023-03-13T15:29:28.597Z,7959.00
2023-03-13T15:30:28.588Z,4489.00
2023-03-13T15:31:28.609Z,1115.00
2023-03-13T15:32:28.576Z,2935.00
2023-03-13T15:33:28.555Z,8772.00
2023-03-13T15:34:28.564Z,6214.00
2023-03-13T15:35:28.521Z,4596.00
2023-03-13T15:36:28.514Z,2407.00
2023-03-13T15:37:28.514Z,2237.00
2023-03-13T15:38:28.511Z,1930.00
2023-03-13T15:39:29.725Z,1721.00
2023-03-13T15:40:28.495Z,1564.00
2023-03-13T15:41:28.470Z,1602.00
2023-03-13T15:42:28.503Z,1638.00
2023-03-13T15:43:28.454Z,1482.00
2023-03-13T15:44:28.444Z,1380.00
2023-03-13T15:45:28.408Z,1477.00
2023-03-13T15:46:28.650Z,1523.00
2023-03-13T15:47:28.419Z,1489.00
2023-03-13T15:48:28.485Z,1338.00
2023-03-13T15:49:28.457Z,1216.00
2023-03-13T15:50:28.358Z,1147.00
2023-03-13T15:51:28.355Z,1131.00
2023-03-13T15:52:28.352Z,1230.00
2023-03-13T15:53:28.331Z,1313.00
2023-03-13T15:54:28.318Z,1369.00
2023-03-13T15:55:28.301Z,1294.00
2023-03-13T15:56:28.286Z,1257.00
2023-03-13T15:57:28.364Z,1434.00
2023-03-13T15:58:28.278Z,1368.00
2023-03-13T15:59:28.244Z,1250.00
2023-03-13T16:00:28.252Z,1191.00
2023-03-13T16:01:28.381Z,1178.00
2023-03-13T16:02:28.245Z,1114.00
2023-03-13T16:03:28.262Z,1206.00
2023-03-13T16:04:28.304Z,1223.00
2023-03-13T16:05:28.212Z,1164.00
2023-03-13T16:06:28.269Z,1113.00
2023-03-13T16:07:28.312Z,1091.00
2023-03-13T16:08:36.924Z,961.00
2023-03-13T16:09:28.322Z,970.00
2023-03-13T16:10:28.138Z,901.00
2023-03-13T16:11:28.157Z,731.00
2023-03-13T16:12:28.135Z,542.00
2023-03-13T16:13:28.146Z,582.00
2023-03-13T16:14:28.136Z,573.00
2023-03-13T16:15:28.174Z,545.00
2023-03-13T16:16:28.096Z,544.00
2023-03-13T16:17:28.123Z,622.00
2023-03-13T16:18:28.097Z,630.00
2023-03-13T16:19:28.057Z,604.00
2023-03-13T16:20:28.037Z,589.00
2023-03-13T16:21:28.050Z,583.00
2023-03-13T16:22:28.044Z,571.00
2023-03-13T16:23:27.999Z,572.00
2023-03-13T16:24:28.015Z,510.00
2023-03-13T16:25:27.984Z,503.00
2023-03-13T16:26:28.060Z,474.00
2023-03-13T16:27:27.991Z,479.00
2023-03-13T16:28:27.947Z,472.00
2023-03-13T16:29:27.989Z,471.00
2023-03-13T16:30:27.942Z,505.00
2023-03-13T16:31:27.959Z,538.00
2023-03-13T16:32:27.979Z,529.00
2023-03-13T16:33:27.926Z,498.00
2023-03-13T16:34:27.930Z,478.00
2023-03-13T16:35:27.890Z,389.00
2023-03-13T16:36:27.872Z,355.00
2023-03-13T16:37:28.074Z,373.00
2023-03-13T16:38:27.983Z,385.00
2023-03-13T16:39:27.859Z,316.00
2023-03-13T16:40:27.806Z,287.00
2023-03-13T16:41:27.856Z,321.00
2023-03-13T16:42:27.820Z,301.00
2023-03-13T16:43:27.785Z,300.00
2023-03-13T16:44:27.827Z,282.00
2023-03-13T16:45:27.755Z,291.00
2023-03-13T16:46:27.784Z,276.00
2023-03-13T16:47:27.736Z,253.00
2023-03-13T16:48:27.748Z,233.00
2023-03-13T16:49:27.728Z,219.00
2023-03-13T16:50:28.497Z,217.00
2023-03-13T16:51:28.030Z,212.00
2023-03-13T16:52:27.671Z,204.00
2023-03-13T16:53:27.684Z,201.00
2023-03-13T16:54:27.667Z,198.00
2023-03-13T16:55:27.641Z,193.00
2023-03-13T16:56:27.658Z,198.00
2023-03-13T16:57:27.621Z,199.00
2023-03-13T16:58:27.616Z,203.00
2023-03-13T16:59:27.667Z,190.00
2023-03-13T17:00:27.599Z,183.00
2023-03-13T17:01:27.625Z,163.00
2023-03-13T17:02:27.647Z,138.00
2023-03-13T17:03:27.593Z,122.00
2023-03-13T17:04:28.088Z,109.00
2023-03-13T17:05:27.594Z,95.00
2023-03-13T17:06:27.531Z,92.00
2023-03-13T17:07:27.538Z,79.00
2023-03-13T17:08:27.549Z,71.00
2023-03-13T17:09:27.530Z,73.00
2023-03-13T17:10:27.520Z,61.00
2023-03-13T17:11:27.490Z,53.00
2023-03-13T17:12:27.486Z,54.00
2023-03-13T17:13:27.457Z,47.00